sensor_id;sensor_type;location;lat;lon;timestamp;temperature;humidity
34640;DHT22;22600;48.186;11.526;2023-08-30T00:01:30;24.60;52.70
34640;DHT22;22600;48.186;11.526;2023-08-30T00:03:55;24.60;52.80
34640;DHT22;22600;48.186;11.526;2023-08-30T00:06:21;24.60;52.80
34640;DHT22;22600;48.186;11.526;2023-08-30T00:08:46;24.60;52.70
34640;DHT22;22600;48.186;11.526;2023-08-30T00:11:12;24.60;52.70
34640;DHT22;22600;48.186;11.526;2023-08-30T00:13:37;24.60;52.70
34640;DHT22;22600;48.186;11.526;2023-08-30T00:16:03;24.60;52.70
34640;DHT22;22600;48.186;11.526;2023-08-30T00:18:29;24.60;52.70
34640;DHT22;22600;48.186;11.526;2023-08-30T00:20:54;24.60;52.70
34640;DHT22;22600;48.186;11.526;2023-08-30T00:23:22;24.50;52.70
34640;DHT22;22600;48.186;11.526;2023-08-30T00:25:47;24.60;52.70
34640;DHT22;22600;48.186;11.526;2023-08-30T00:28:14;24.60;52.70
34640;DHT22;22600;48.186;11.526;2023-08-30T00:30:39;24.60;52.60
34640;DHT22;22600;48.186;11.526;2023-08-30T00:33:04;24.60;52.60
34640;DHT22;22600;48.186;11.526;2023-08-30T00:35:30;24.60;52.60
34640;DHT22;22600;48.186;11.526;2023-08-30T00:37:55;24.60;52.60
34640;DHT22;22600;48.186;11.526;2023-08-30T00:40:24;24.60;52.60
34640;DHT22;22600;48.186;11.526;2023-08-30T00:42:50;24.60;52.70
34640;DHT22;22600;48.186;11.526;2023-08-30T00:47:41;24.60;52.60
34640;DHT22;22600;48.186;11.526;2023-08-30T00:50:07;24.50;52.60
34640;DHT22;22600;48.186;11.526;2023-08-30T00:52:32;24.50;52.60
34640;DHT22;22600;48.186;11.526;2023-08-30T00:54:58;24.50;52.40
34640;DHT22;22600;48.186;11.526;2023-08-30T00:57:24;24.60;52.10
34640;DHT22;22600;48.186;11.526;2023-08-30T00:59:50;24.60;51.80
34640;DHT22;22600;48.186;11.526;2023-08-30T01:02:16;24.50;51.50
34640;DHT22;22600;48.186;11.526;2023-08-30T01:04:42;24.50;51.30
34640;DHT22;22600;48.186;11.526;2023-08-30T01:07:07;24.50;51.30
34640;DHT22;22600;48.186;11.526;2023-08-30T01:09:33;24.50;51.40
34640;DHT22;22600;48.186;11.526;2023-08-30T01:12:09;24.50;51.40
34640;DHT22;22600;48.186;11.526;2023-08-30T01:14:58;24.50;51.40
34640;DHT22;22600;48.186;11.526;2023-08-30T01:17:21;24.50;51.40
34640;DHT22;22600;48.186;11.526;2023-08-30T01:19:49;24.50;51.40
34640;DHT22;22600;48.186;11.526;2023-08-30T01:22:17;24.50;51.50
34640;DHT22;22600;48.186;11.526;2023-08-30T01:25:14;24.50;51.40
34640;DHT22;22600;48.186;11.526;2023-08-30T01:27:41;24.50;51.40
34640;DHT22;22600;48.186;11.526;2023-08-30T01:30:09;24.50;51.40
34640;DHT22;22600;48.186;11.526;2023-08-30T01:32:36;24.50;51.40
34640;DHT22;22600;48.186;11.526;2023-08-30T01:35:03;29.30;54.40
34640;DHT22;22600;48.186;11.526;2023-08-30T01:37:29;24.50;51.40
34640;DHT22;22600;48.186;11.526;2023-08-30T01:39:55;24.50;51.40
34640;DHT22;22600;48.186;11.526;2023-08-30T01:42:24;24.50;51.40
34640;DHT22;22600;48.186;11.526;2023-08-30T01:44:51;24.50;51.40
34640;DHT22;22600;48.186;11.526;2023-08-30T01:47:17;24.50;51.40
34640;DHT22;22600;48.186;11.526;2023-08-30T01:52:10;24.50;51.40
34640;DHT22;22600;48.186;11.526;2023-08-30T01:54:35;24.50;51.40
34640;DHT22;22600;48.186;11.526;2023-08-30T01:57:01;24.40;51.40
34640;DHT22;22600;48.186;11.526;2023-08-30T01:59:26;24.50;51.30
34640;DHT22;22600;48.186;11.526;2023-08-30T02:01:52;24.50;51.40
34640;DHT22;22600;48.186;11.526;2023-08-30T02:04:17;24.40;51.40
34640;DHT22;22600;48.186;11.526;2023-08-30T02:07:04;24.50;51.30
34640;DHT22;22600;48.186;11.526;2023-08-30T02:11:55;24.50;51.40
34640;DHT22;22600;48.186;11.526;2023-08-30T02:14:22;24.50;51.30
34640;DHT22;22600;48.186;11.526;2023-08-30T02:16:48;24.50;51.30
34640;DHT22;22600;48.186;11.526;2023-08-30T02:19:14;24.40;51.40
34640;DHT22;22600;48.186;11.526;2023-08-30T02:21:46;24.40;51.90
34640;DHT22;22600;48.186;11.526;2023-08-30T02:24:11;24.40;51.90
34640;DHT22;22600;48.186;11.526;2023-08-30T02:26:37;24.70;52.10
34640;DHT22;22600;48.186;11.526;2023-08-30T02:29:03;24.40;51.40
34640;DHT22;22600;48.186;11.526;2023-08-30T02:31:28;24.50;52.00
34640;DHT22;22600;48.186;11.526;2023-08-30T02:33:54;24.40;51.40
34640;DHT22;22600;48.186;11.526;2023-08-30T02:36:19;24.40;51.90
34640;DHT22;22600;48.186;11.526;2023-08-30T02:38:45;24.40;51.50
34640;DHT22;22600;48.186;11.526;2023-08-30T02:41:10;24.40;52.00
34640;DHT22;22600;48.186;11.526;2023-08-30T02:43:36;24.50;52.00
34640;DHT22;22600;48.186;11.526;2023-08-30T02:46:01;24.40;51.40
34640;DHT22;22600;48.186;11.526;2023-08-30T02:48:29;24.40;52.00
34640;DHT22;22600;48.186;11.526;2023-08-30T02:53:20;24.40;51.50
34640;DHT22;22600;48.186;11.526;2023-08-30T02:55:46;24.40;51.40
34640;DHT22;22600;48.186;11.526;2023-08-30T02:58:12;24.40;51.40
34640;DHT22;22600;48.186;11.526;2023-08-30T03:00:38;24.40;51.90
34640;DHT22;22600;48.186;11.526;2023-08-30T03:03:03;24.40;52.00
34640;DHT22;22600;48.186;11.526;2023-08-30T03:05:29;24.40;51.40
34640;DHT22;22600;48.186;11.526;2023-08-30T03:07:54;24.40;51.40
34640;DHT22;22600;48.186;11.526;2023-08-30T03:10:20;24.40;51.50
34640;DHT22;22600;48.186;11.526;2023-08-30T03:12:45;24.40;51.90
34640;DHT22;22600;48.186;11.526;2023-08-30T03:15:11;24.40;51.90
34640;DHT22;22600;48.186;11.526;2023-08-30T03:17:36;24.40;51.50
34640;DHT22;22600;48.186;11.526;2023-08-30T03:20:02;24.40;52.00
34640;DHT22;22600;48.186;11.526;2023-08-30T03:22:29;24.30;51.40
34640;DHT22;22600;48.186;11.526;2023-08-30T03:24:54;24.40;52.00
34640;DHT22;22600;48.186;11.526;2023-08-30T03:27:20;24.40;52.10
34640;DHT22;22600;48.186;11.526;2023-08-30T03:29:45;24.40;51.90
34640;DHT22;22600;48.186;11.526;2023-08-30T03:32:14;24.30;51.40
34640;DHT22;22600;48.186;11.526;2023-08-30T03:34:40;24.40;51.40
34640;DHT22;22600;48.186;11.526;2023-08-30T03:37:05;24.30;51.40
34640;DHT22;22600;48.186;11.526;2023-08-30T03:39:31;24.40;51.90
34640;DHT22;22600;48.186;11.526;2023-08-30T03:41:56;24.40;51.90
34640;DHT22;22600;48.186;11.526;2023-08-30T03:44:22;26.10;52.90
34640;DHT22;22600;48.186;11.526;2023-08-30T03:46:48;24.40;51.40
34640;DHT22;22600;48.186;11.526;2023-08-30T03:49:13;24.30;51.90
34640;DHT22;22600;48.186;11.526;2023-08-30T03:51:39;24.40;51.40
34640;DHT22;22600;48.186;11.526;2023-08-30T03:54:04;24.30;51.40
34640;DHT22;22600;48.186;11.526;2023-08-30T03:56:30;24.30;51.40
34640;DHT22;22600;48.186;11.526;2023-08-30T03:58:55;24.30;51.90
34640;DHT22;22600;48.186;11.526;2023-08-30T04:01:21;25.90;52.80
34640;DHT22;22600;48.186;11.526;2023-08-30T04:03:46;25.00;52.20
34640;DHT22;22600;48.186;11.526;2023-08-30T04:06:11;24.30;51.40
34640;DHT22;22600;48.186;11.526;2023-08-30T04:08:37;24.30;51.40
34640;DHT22;22600;48.186;11.526;2023-08-30T04:11:02;24.30;51.40
34640;DHT22;22600;48.186;11.526;2023-08-30T04:13:28;24.30;51.40
34640;DHT22;22600;48.186;11.526;2023-08-30T04:15:53;24.30;51.90
34640;DHT22;22600;48.186;11.526;2023-08-30T04:18:19;28.00;54.10
34640;DHT22;22600;48.186;11.526;2023-08-30T04:20:44;24.30;51.90
34640;DHT22;22600;48.186;11.526;2023-08-30T04:23:10;24.30;51.40
34640;DHT22;22600;48.186;11.526;2023-08-30T04:25:36;24.30;51.40
34640;DHT22;22600;48.186;11.526;2023-08-30T04:28:01;24.20;51.90
34640;DHT22;22600;48.186;11.526;2023-08-30T04:30:27;24.30;51.40
34640;DHT22;22600;48.186;11.526;2023-08-30T04:32:53;24.50;52.00
34640;DHT22;22600;48.186;11.526;2023-08-30T04:35:18;24.30;51.40
34640;DHT22;22600;48.186;11.526;2023-08-30T04:37:43;24.30;51.40
34640;DHT22;22600;48.186;11.526;2023-08-30T04:40:09;24.30;51.90
34640;DHT22;22600;48.186;11.526;2023-08-30T04:42:35;24.30;51.90
34640;DHT22;22600;48.186;11.526;2023-08-30T04:45:01;24.30;51.90
34640;DHT22;22600;48.186;11.526;2023-08-30T04:47:28;24.30;51.40
34640;DHT22;22600;48.186;11.526;2023-08-30T04:49:54;24.30;51.90
34640;DHT22;22600;48.186;11.526;2023-08-30T04:52:20;24.30;51.40
34640;DHT22;22600;48.186;11.526;2023-08-30T04:54:45;24.30;51.90
34640;DHT22;22600;48.186;11.526;2023-08-30T04:57:11;24.20;51.80
34640;DHT22;22600;48.186;11.526;2023-08-30T04:59:45;24.30;51.90
34640;DHT22;22600;48.186;11.526;2023-08-30T05:02:13;24.30;51.90
34640;DHT22;22600;48.186;11.526;2023-08-30T05:04:38;24.30;51.30
34640;DHT22;22600;48.186;11.526;2023-08-30T05:07:03;24.30;51.80
34640;DHT22;22600;48.186;11.526;2023-08-30T05:09:32;24.30;51.30
34640;DHT22;22600;48.186;11.526;2023-08-30T05:11:59;24.30;51.30
34640;DHT22;22600;48.186;11.526;2023-08-30T05:14:25;24.30;51.90
34640;DHT22;22600;48.186;11.526;2023-08-30T05:16:50;24.30;51.80
34640;DHT22;22600;48.186;11.526;2023-08-30T05:19:16;24.30;51.30
34640;DHT22;22600;48.186;11.526;2023-08-30T05:21:44;24.30;51.90
34640;DHT22;22600;48.186;11.526;2023-08-30T05:24:09;24.30;51.90
34640;DHT22;22600;48.186;11.526;2023-08-30T05:26:35;24.30;51.90
34640;DHT22;22600;48.186;11.526;2023-08-30T05:29:01;24.30;51.40
34640;DHT22;22600;48.186;11.526;2023-08-30T05:31:26;24.30;51.90
34640;DHT22;22600;48.186;11.526;2023-08-30T05:33:52;24.30;51.90
34640;DHT22;22600;48.186;11.526;2023-08-30T05:36:17;24.30;51.90
34640;DHT22;22600;48.186;11.526;2023-08-30T05:38:43;24.30;51.90
34640;DHT22;22600;48.186;11.526;2023-08-30T05:41:09;24.20;51.40
34640;DHT22;22600;48.186;11.526;2023-08-30T05:43:34;24.20;51.30
34640;DHT22;22600;48.186;11.526;2023-08-30T05:46:00;24.30;51.90
34640;DHT22;22600;48.186;11.526;2023-08-30T05:48:28;24.20;51.80
34640;DHT22;22600;48.186;11.526;2023-08-30T05:50:53;24.20;51.30
34640;DHT22;22600;48.186;11.526;2023-08-30T05:53:19;24.20;51.90
34640;DHT22;22600;48.186;11.526;2023-08-30T05:55:44;24.30;51.40
34640;DHT22;22600;48.186;11.526;2023-08-30T05:58:10;24.20;51.30
34640;DHT22;22600;48.186;11.526;2023-08-30T06:00:35;24.30;51.50
34640;DHT22;22600;48.186;11.526;2023-08-30T06:03:00;24.20;51.40
34640;DHT22;22600;48.186;11.526;2023-08-30T06:05:26;24.20;51.90
34640;DHT22;22600;48.186;11.526;2023-08-30T06:07:51;24.30;51.40
34640;DHT22;22600;48.186;11.526;2023-08-30T06:10:17;24.20;51.40
34640;DHT22;22600;48.186;11.526;2023-08-30T06:12:42;24.30;51.40
34640;DHT22;22600;48.186;11.526;2023-08-30T06:15:08;24.20;51.30
34640;DHT22;22600;48.186;11.526;2023-08-30T06:17:33;24.20;51.40
34640;DHT22;22600;48.186;11.526;2023-08-30T06:19:59;24.30;51.90
34640;DHT22;22600;48.186;11.526;2023-08-30T06:22:24;24.20;51.30
34640;DHT22;22600;48.186;11.526;2023-08-30T06:24:50;24.20;51.40
34640;DHT22;22600;48.186;11.526;2023-08-30T06:27:15;24.20;51.40
34640;DHT22;22600;48.186;11.526;2023-08-30T06:29:41;24.20;51.40
34640;DHT22;22600;48.186;11.526;2023-08-30T06:32:07;24.20;51.90
34640;DHT22;22600;48.186;11.526;2023-08-30T06:34:32;24.20;51.40
34640;DHT22;22600;48.186;11.526;2023-08-30T06:36:57;24.20;51.90
34640;DHT22;22600;48.186;11.526;2023-08-30T06:39:23;24.20;51.40
34640;DHT22;22600;48.186;11.526;2023-08-30T06:41:49;21.30;50.00
34640;DHT22;22600;48.186;11.526;2023-08-30T06:44:14;24.20;51.40
34640;DHT22;22600;48.186;11.526;2023-08-30T06:46:40;24.20;52.00
34640;DHT22;22600;48.186;11.526;2023-08-30T06:49:06;24.20;51.50
34640;DHT22;22600;48.186;11.526;2023-08-30T06:51:34;24.20;51.50
34640;DHT22;22600;48.186;11.526;2023-08-30T06:54:00;24.20;51.50
34640;DHT22;22600;48.186;11.526;2023-08-30T06:56:26;24.20;52.10
34640;DHT22;22600;48.186;11.526;2023-08-30T06:58:51;24.20;51.60
34640;DHT22;22600;48.186;11.526;2023-08-30T07:01:17;24.20;51.60
34640;DHT22;22600;48.186;11.526;2023-08-30T07:03:42;24.20;51.60
34640;DHT22;22600;48.186;11.526;2023-08-30T07:06:09;24.20;52.20
34640;DHT22;22600;48.186;11.526;2023-08-30T07:08:34;24.20;51.60
34640;DHT22;22600;48.186;11.526;2023-08-30T07:11:00;24.20;51.70
34640;DHT22;22600;48.186;11.526;2023-08-30T07:13:25;24.20;51.70
34640;DHT22;22600;48.186;11.526;2023-08-30T07:15:51;24.20;51.70
34640;DHT22;22600;48.186;11.526;2023-08-30T07:18:16;24.20;51.80
34640;DHT22;22600;48.186;11.526;2023-08-30T07:20:42;24.20;52.30
34640;DHT22;22600;48.186;11.526;2023-08-30T07:23:08;24.20;51.80
34640;DHT22;22600;48.186;11.526;2023-08-30T07:25:33;24.90;52.70
34640;DHT22;22600;48.186;11.526;2023-08-30T07:27:59;24.20;51.90
34640;DHT22;22600;48.186;11.526;2023-08-30T07:30:24;24.20;52.00
34640;DHT22;22600;48.186;11.526;2023-08-30T07:32:50;24.20;52.00
34640;DHT22;22600;48.186;11.526;2023-08-30T07:35:15;24.20;51.90
34640;DHT22;22600;48.186;11.526;2023-08-30T07:37:41;24.20;52.40
34640;DHT22;22600;48.186;11.526;2023-08-30T07:40:07;24.20;51.80
34640;DHT22;22600;48.186;11.526;2023-08-30T07:42:33;24.20;51.90
34640;DHT22;22600;48.186;11.526;2023-08-30T07:44:58;24.20;51.90
34640;DHT22;22600;48.186;11.526;2023-08-30T07:47:23;24.30;52.50
34640;DHT22;22600;48.186;11.526;2023-08-30T07:49:49;24.20;51.80
34640;DHT22;22600;48.186;11.526;2023-08-30T07:52:14;24.20;51.80
34640;DHT22;22600;48.186;11.526;2023-08-30T07:54:40;24.20;52.40
34640;DHT22;22600;48.186;11.526;2023-08-30T07:57:06;24.20;51.90
34640;DHT22;22600;48.186;11.526;2023-08-30T07:59:37;24.20;51.90
34640;DHT22;22600;48.186;11.526;2023-08-30T08:02:03;24.20;52.50
34640;DHT22;22600;48.186;11.526;2023-08-30T08:04:31;24.10;51.90
34640;DHT22;22600;48.186;11.526;2023-08-30T08:06:57;24.20;52.50
34640;DHT22;22600;48.186;11.526;2023-08-30T08:09:22;24.20;51.80
34640;DHT22;22600;48.186;11.526;2023-08-30T08:11:48;24.20;52.30
34640;DHT22;22600;48.186;11.526;2023-08-30T08:14:14;24.20;51.90
34640;DHT22;22600;48.186;11.526;2023-08-30T08:16:40;24.20;51.90
34640;DHT22;22600;48.186;11.526;2023-08-30T08:19:05;24.20;51.80
34640;DHT22;22600;48.186;11.526;2023-08-30T08:21:32;24.10;51.70
34640;DHT22;22600;48.186;11.526;2023-08-30T08:23:58;24.30;52.40
34640;DHT22;22600;48.186;11.526;2023-08-30T08:26:23;24.20;51.90
34640;DHT22;22600;48.186;11.526;2023-08-30T08:28:49;24.20;52.50
34640;DHT22;22600;48.186;11.526;2023-08-30T08:31:14;24.10;51.90
34640;DHT22;22600;48.186;11.526;2023-08-30T08:33:40;24.20;51.90
34640;DHT22;22600;48.186;11.526;2023-08-30T08:36:05;24.20;51.90
34640;DHT22;22600;48.186;11.526;2023-08-30T08:38:31;24.20;51.90
34640;DHT22;22600;48.186;11.526;2023-08-30T08:41:03;24.20;52.00
34640;DHT22;22600;48.186;11.526;2023-08-30T08:43:29;24.20;52.40
34640;DHT22;22600;48.186;11.526;2023-08-30T08:45:57;24.30;52.50
34640;DHT22;22600;48.186;11.526;2023-08-30T08:48:25;24.20;52.60
34640;DHT22;22600;48.186;11.526;2023-08-30T08:50:50;24.20;52.60
34640;DHT22;22600;48.186;11.526;2023-08-30T08:53:16;24.20;52.10
34640;DHT22;22600;48.186;11.526;2023-08-30T08:55:42;24.20;52.60
34640;DHT22;22600;48.186;11.526;2023-08-30T08:58:07;24.20;52.20
34640;DHT22;22600;48.186;11.526;2023-08-30T09:00:33;24.20;52.20
34640;DHT22;22600;48.186;11.526;2023-08-30T09:02:58;24.40;52.80
34640;DHT22;22600;48.186;11.526;2023-08-30T09:05:25;24.20;52.30
34640;DHT22;22600;48.186;11.526;2023-08-30T09:07:52;24.30;52.70
34640;DHT22;22600;48.186;11.526;2023-08-30T09:10:20;24.20;52.70
34640;DHT22;22600;48.186;11.526;2023-08-30T09:12:45;24.20;52.10
34640;DHT22;22600;48.186;11.526;2023-08-30T09:15:11;24.20;52.20
34640;DHT22;22600;48.186;11.526;2023-08-30T09:17:37;24.40;52.80
34640;DHT22;22600;48.186;11.526;2023-08-30T09:20:09;24.20;52.70
34640;DHT22;22600;48.186;11.526;2023-08-30T09:22:38;24.20;52.70
34640;DHT22;22600;48.186;11.526;2023-08-30T09:25:04;24.30;52.20
34640;DHT22;22600;48.186;11.526;2023-08-30T09:27:33;24.20;52.70
34640;DHT22;22600;48.186;11.526;2023-08-30T09:29:59;24.30;52.70
34640;DHT22;22600;48.186;11.526;2023-08-30T09:32:24;24.30;52.80
34640;DHT22;22600;48.186;11.526;2023-08-30T09:34:52;24.30;52.10
34640;DHT22;22600;48.186;11.526;2023-08-30T09:37:21;24.20;52.60
34640;DHT22;22600;48.186;11.526;2023-08-30T09:39:49;24.30;52.50
34640;DHT22;22600;48.186;11.526;2023-08-30T09:42:16;24.20;52.50
34640;DHT22;22600;48.186;11.526;2023-08-30T09:44:43;24.20;52.50
34640;DHT22;22600;48.186;11.526;2023-08-30T09:47:08;24.30;52.50
34640;DHT22;22600;48.186;11.526;2023-08-30T09:49:37;24.30;52.50
34640;DHT22;22600;48.186;11.526;2023-08-30T09:52:03;24.30;52.00
34640;DHT22;22600;48.186;11.526;2023-08-30T09:54:33;21.90;50.80
34640;DHT22;22600;48.186;11.526;2023-08-30T09:57:01;24.30;52.00
34640;DHT22;22600;48.186;11.526;2023-08-30T09:59:27;24.30;52.00
34640;DHT22;22600;48.186;11.526;2023-08-30T10:01:53;24.30;52.00
34640;DHT22;22600;48.186;11.526;2023-08-30T10:04:19;24.30;52.50
34640;DHT22;22600;48.186;11.526;2023-08-30T10:06:45;24.30;52.00
34640;DHT22;22600;48.186;11.526;2023-08-30T10:09:11;24.30;52.50
34640;DHT22;22600;48.186;11.526;2023-08-30T10:11:38;24.20;51.90
34640;DHT22;22600;48.186;11.526;2023-08-30T10:14:04;24.20;52.40
34640;DHT22;22600;48.186;11.526;2023-08-30T10:16:32;24.30;52.00
34640;DHT22;22600;48.186;11.526;2023-08-30T10:19:01;24.20;52.40
34640;DHT22;22600;48.186;11.526;2023-08-30T10:21:28;24.20;51.90
34640;DHT22;22600;48.186;11.526;2023-08-30T10:23:54;24.20;52.30
34640;DHT22;22600;48.186;11.526;2023-08-30T10:26:22;24.20;52.30
34640;DHT22;22600;48.186;11.526;2023-08-30T10:28:49;24.30;51.80
34640;DHT22;22600;48.186;11.526;2023-08-30T10:31:15;24.20;51.70
34640;DHT22;22600;48.186;11.526;2023-08-30T10:33:49;24.20;51.70
34640;DHT22;22600;48.186;11.526;2023-08-30T10:36:22;24.20;51.70
34640;DHT22;22600;48.186;11.526;2023-08-30T10:38:48;24.20;51.70
34640;DHT22;22600;48.186;11.526;2023-08-30T10:41:19;24.20;51.70
34640;DHT22;22600;48.186;11.526;2023-08-30T10:43:48;24.20;52.20
34640;DHT22;22600;48.186;11.526;2023-08-30T10:46:14;24.20;51.60
34640;DHT22;22600;48.186;11.526;2023-08-30T10:48:40;24.20;51.70
34640;DHT22;22600;48.186;11.526;2023-08-30T10:51:16;24.20;51.60
34640;DHT22;22600;48.186;11.526;2023-08-30T10:53:54;24.20;51.70
34640;DHT22;22600;48.186;11.526;2023-08-30T10:56:20;24.20;52.10
34640;DHT22;22600;48.186;11.526;2023-08-30T10:58:51;24.20;52.10
34640;DHT22;22600;48.186;11.526;2023-08-30T11:01:17;24.20;52.10
34640;DHT22;22600;48.186;11.526;2023-08-30T11:03:42;24.20;52.00
34640;DHT22;22600;48.186;11.526;2023-08-30T11:06:12;24.20;51.50
34640;DHT22;22600;48.186;11.526;2023-08-30T11:08:38;24.20;51.50
34640;DHT22;22600;48.186;11.526;2023-08-30T11:11:04;24.20;51.40
34640;DHT22;22600;48.186;11.526;2023-08-30T11:13:30;24.20;51.30
34640;DHT22;22600;48.186;11.526;2023-08-30T11:16:02;24.20;51.80
34640;DHT22;22600;48.186;11.526;2023-08-30T11:18:36;24.20;51.40
34640;DHT22;22600;48.186;11.526;2023-08-30T11:21:02;24.20;51.30
34640;DHT22;22600;48.186;11.526;2023-08-30T11:23:28;24.20;51.20
34640;DHT22;22600;48.186;11.526;2023-08-30T11:25:54;24.20;51.20
34640;DHT22;22600;48.186;11.526;2023-08-30T11:28:22;24.20;51.70
34640;DHT22;22600;48.186;11.526;2023-08-30T11:30:48;24.20;51.10
34640;DHT22;22600;48.186;11.526;2023-08-30T11:33:16;24.20;51.10
34640;DHT22;22600;48.186;11.526;2023-08-30T11:35:42;24.20;51.20
34640;DHT22;22600;48.186;11.526;2023-08-30T11:38:07;24.20;51.20
34640;DHT22;22600;48.186;11.526;2023-08-30T11:40:33;24.20;51.10
34640;DHT22;22600;48.186;11.526;2023-08-30T11:43:00;24.20;51.60
34640;DHT22;22600;48.186;11.526;2023-08-30T11:45:25;24.20;51.10
34640;DHT22;22600;48.186;11.526;2023-08-30T11:47:51;24.20;51.00
34640;DHT22;22600;48.186;11.526;2023-08-30T11:50:18;24.20;51.00
34640;DHT22;22600;48.186;11.526;2023-08-30T11:52:45;24.20;50.90
34640;DHT22;22600;48.186;11.526;2023-08-30T11:55:11;24.20;51.00
34640;DHT22;22600;48.186;11.526;2023-08-30T11:57:37;24.20;50.90
34640;DHT22;22600;48.186;11.526;2023-08-30T12:00:10;24.20;50.90
34640;DHT22;22600;48.186;11.526;2023-08-30T12:02:36;24.20;51.40
34640;DHT22;22600;48.186;11.526;2023-08-30T12:05:01;24.20;50.90
34640;DHT22;22600;48.186;11.526;2023-08-30T12:07:27;24.20;50.90
34640;DHT22;22600;48.186;11.526;2023-08-30T12:09:52;24.20;50.90
34640;DHT22;22600;48.186;11.526;2023-08-30T12:12:18;24.20;50.90
34640;DHT22;22600;48.186;11.526;2023-08-30T12:14:44;24.20;51.40
34640;DHT22;22600;48.186;11.526;2023-08-30T12:17:09;24.20;50.80
34640;DHT22;22600;48.186;11.526;2023-08-30T12:19:37;24.20;50.90
34640;DHT22;22600;48.186;11.526;2023-08-30T12:22:05;24.20;50.80
34640;DHT22;22600;48.186;11.526;2023-08-30T12:24:44;24.20;50.90
34640;DHT22;22600;48.186;11.526;2023-08-30T12:27:10;24.20;51.40
34640;DHT22;22600;48.186;11.526;2023-08-30T12:29:35;24.20;51.30
34640;DHT22;22600;48.186;11.526;2023-08-30T12:32:01;24.20;51.40
34640;DHT22;22600;48.186;11.526;2023-08-30T12:34:26;24.20;50.80
34640;DHT22;22600;48.186;11.526;2023-08-30T12:36:52;24.20;50.80
34640;DHT22;22600;48.186;11.526;2023-08-30T12:39:17;24.20;50.80
34640;DHT22;22600;48.186;11.526;2023-08-30T12:41:43;24.20;50.70
34640;DHT22;22600;48.186;11.526;2023-08-30T12:44:08;24.20;51.20
34640;DHT22;22600;48.186;11.526;2023-08-30T12:46:34;24.20;50.70
34640;DHT22;22600;48.186;11.526;2023-08-30T12:48:59;24.10;50.40
34640;DHT22;22600;48.186;11.526;2023-08-30T12:51:25;24.20;50.30
34640;DHT22;22600;48.186;11.526;2023-08-30T12:53:50;24.20;50.30
34640;DHT22;22600;48.186;11.526;2023-08-30T12:58:41;24.10;50.00
34640;DHT22;22600;48.186;11.526;2023-08-30T13:01:07;24.10;50.20
34640;DHT22;22600;48.186;11.526;2023-08-30T13:03:32;24.20;50.20
34640;DHT22;22600;48.186;11.526;2023-08-30T13:05:58;24.20;50.10
34640;DHT22;22600;48.186;11.526;2023-08-30T13:08:24;24.10;50.10
34640;DHT22;22600;48.186;11.526;2023-08-30T13:10:49;24.10;50.10
34640;DHT22;22600;48.186;11.526;2023-08-30T13:13:15;24.20;50.10
34640;DHT22;22600;48.186;11.526;2023-08-30T13:15:40;24.10;50.00
34640;DHT22;22600;48.186;11.526;2023-08-30T13:18:06;24.10;50.40
34640;DHT22;22600;48.186;11.526;2023-08-30T13:20:31;26.60;51.80
34640;DHT22;22600;48.186;11.526;2023-08-30T13:22:57;24.20;49.70
34640;DHT22;22600;48.186;11.526;2023-08-30T13:25:22;24.10;49.70
34640;DHT22;22600;48.186;11.526;2023-08-30T13:27:48;24.10;49.70
34640;DHT22;22600;48.186;11.526;2023-08-30T13:30:13;24.10;49.70
34640;DHT22;22600;48.186;11.526;2023-08-30T13:32:39;24.20;50.20
34640;DHT22;22600;48.186;11.526;2023-08-30T13:35:04;24.20;50.30
34640;DHT22;22600;48.186;11.526;2023-08-30T13:37:30;24.10;49.90
34640;DHT22;22600;48.186;11.526;2023-08-30T13:39:56;24.10;49.90
34640;DHT22;22600;48.186;11.526;2023-08-30T13:42:21;24.10;50.60
34640;DHT22;22600;48.186;11.526;2023-08-30T13:44:49;24.10;50.10
34640;DHT22;22600;48.186;11.526;2023-08-30T13:47:15;24.10;50.20
34640;DHT22;22600;48.186;11.526;2023-08-30T13:49:41;24.10;50.20
34640;DHT22;22600;48.186;11.526;2023-08-30T13:52:07;23.90;50.10
34640;DHT22;22600;48.186;11.526;2023-08-30T13:54:32;24.10;50.20
34640;DHT22;22600;48.186;11.526;2023-08-30T13:56:58;24.10;50.20
34640;DHT22;22600;48.186;11.526;2023-08-30T13:59:24;24.10;50.30
34640;DHT22;22600;48.186;11.526;2023-08-30T14:01:49;24.10;50.90
34640;DHT22;22600;48.186;11.526;2023-08-30T14:04:15;24.10;50.20
34640;DHT22;22600;48.186;11.526;2023-08-30T14:06:40;24.10;50.20
34640;DHT22;22600;48.186;11.526;2023-08-30T14:09:05;24.10;50.20
34640;DHT22;22600;48.186;11.526;2023-08-30T14:11:34;24.10;50.20
34640;DHT22;22600;48.186;11.526;2023-08-30T14:14:01;24.10;50.10
34640;DHT22;22600;48.186;11.526;2023-08-30T14:16:27;24.10;50.60
34640;DHT22;22600;48.186;11.526;2023-08-30T14:18:52;24.10;50.10
34640;DHT22;22600;48.186;11.526;2023-08-30T14:21:18;24.10;50.60
34640;DHT22;22600;48.186;11.526;2023-08-30T14:23:43;24.10;50.00
34640;DHT22;22600;48.186;11.526;2023-08-30T14:26:09;24.10;50.10
34640;DHT22;22600;48.186;11.526;2023-08-30T14:28:35;24.10;50.10
34640;DHT22;22600;48.186;11.526;2023-08-30T14:31:01;24.10;50.20
34640;DHT22;22600;48.186;11.526;2023-08-30T14:33:26;24.10;50.10
34640;DHT22;22600;48.186;11.526;2023-08-30T14:35:52;24.10;50.20
34640;DHT22;22600;48.186;11.526;2023-08-30T14:38:17;24.10;50.20
34640;DHT22;22600;48.186;11.526;2023-08-30T14:40:43;24.10;50.30
34640;DHT22;22600;48.186;11.526;2023-08-30T14:43:08;24.10;50.30
34640;DHT22;22600;48.186;11.526;2023-08-30T14:45:34;24.10;50.30
34640;DHT22;22600;48.186;11.526;2023-08-30T14:47:59;24.10;50.40
34640;DHT22;22600;48.186;11.526;2023-08-30T14:50:25;24.10;50.30
34640;DHT22;22600;48.186;11.526;2023-08-30T14:52:50;24.10;50.30
34640;DHT22;22600;48.186;11.526;2023-08-30T14:55:17;24.10;50.30
34640;DHT22;22600;48.186;11.526;2023-08-30T14:57:43;24.10;50.30
34640;DHT22;22600;48.186;11.526;2023-08-30T15:00:08;24.10;50.30
34640;DHT22;22600;48.186;11.526;2023-08-30T15:02:34;24.10;50.20
34640;DHT22;22600;48.186;11.526;2023-08-30T15:04:59;24.10;50.20
34640;DHT22;22600;48.186;11.526;2023-08-30T15:07:25;24.10;50.20
34640;DHT22;22600;48.186;11.526;2023-08-30T15:09:50;24.10;50.20
34640;DHT22;22600;48.186;11.526;2023-08-30T15:12:16;24.10;50.20
34640;DHT22;22600;48.186;11.526;2023-08-30T15:14:41;24.10;50.10
34640;DHT22;22600;48.186;11.526;2023-08-30T15:17:11;24.10;50.10
34640;DHT22;22600;48.186;11.526;2023-08-30T15:19:36;24.10;50.00
34640;DHT22;22600;48.186;11.526;2023-08-30T15:22:02;24.10;50.10